Time;durP1;ratioP1;P1;durP2;ratioP2;P2;SDS_P1;SDS_P2;PMS_P1;PMS_P2;Temp;Humidity;BMP_temperature;BMP_pressure;BME280_temperature;BME280_humidity;BME280_pressure;Samples;Min_cycle;Max_cycle;Signal;HPM_P1;HPM_P2
2021/12/14 00:01:09;;;;;;;39.42;25.40;;;;;;;1.43;85.60;97469.34;1769384;80;21012;-80
2021/12/14 00:03:36;;;;;;;37.85;25.27;;;;;;;1.46;85.55;97469.98;1746794;81;21080;-80
2021/12/14 00:06:03;;;;;;;42.20;25.05;;;;;;;1.44;85.60;97462.83;1775944;80;21039;-80
2021/12/14 00:08:35;;;;;;;55.75;30.95;;;;;;;1.43;85.80;97461.66;1769093;80;21003;-80
2021/12/14 00:15:57;;;;;;;44.90;23.98;;;;;;;1.24;86.05;97454.80;1772463;80;21040;-80
2021/12/14 00:18:23;;;;;;;36.40;22.40;;;;;;;1.24;86.17;97456.08;1735382;81;21051;-80
2021/12/14 00:20:57;;;;;;;32.23;21.65;;;;;;;1.23;86.20;97451.88;1747631;80;21410;-80
2021/12/14 00:26:12;;;;;;;30.25;20.32;;;;;;;1.19;86.33;97435.44;1778878;80;21004;-80
2021/12/14 00:28:38;;;;;;;36.88;23.05;;;;;;;1.24;86.62;97444.55;1764583;80;21375;-80
2021/12/14 00:31:10;;;;;;;25.80;16.67;;;;;;;1.30;86.81;97444.15;1774999;79;21011;-80
2021/12/14 00:33:37;;;;;;;28.65;18.23;;;;;;;1.29;86.63;97445.07;1758859;80;20996;-80
2021/12/14 00:36:05;;;;;;;32.38;18.92;;;;;;;1.26;86.63;97444.81;1773316;80;21095;-80
2021/12/14 00:38:35;;;;;;;40.63;21.50;;;;;;;1.27;86.64;97448.19;1755376;80;20996;-80
2021/12/14 00:41:17;;;;;;;21.30;13.95;;;;;;;1.31;86.62;97451.77;1764286;80;21410;-81
2021/12/14 00:43:43;;;;;;;23.38;16.57;;;;;;;1.32;86.51;97452.12;1762669;79;21019;-80
2021/12/14 00:46:09;;;;;;;22.48;16.27;;;;;;;1.38;86.62;97452.17;1775420;79;21007;-80
2021/12/14 00:48:35;;;;;;;30.12;18.65;;;;;;;1.41;86.75;97455.36;1764042;80;20995;-81
2021/12/14 00:51:01;;;;;;;29.60;18.35;;;;;;;1.43;86.72;97456.07;1771005;80;21414;-80
2021/12/14 00:53:27;;;;;;;20.70;14.43;;;;;;;1.43;86.52;97462.47;1772805;80;21401;-80
2021/12/14 00:55:55;;;;;;;23.57;15.65;;;;;;;1.46;86.56;97466.14;1770553;80;21330;-80
2021/12/14 00:58:21;;;;;;;22.10;15.95;;;;;;;1.51;86.38;97472.24;1767747;80;21086;-80
2021/12/14 01:01:10;;;;;;;22.13;15.68;;;;;;;1.57;86.37;97470.55;1768233;80;21064;-80
2021/12/14 01:03:37;;;;;;;24.47;17.17;;;;;;;1.58;86.28;97467.07;1770999;80;21054;-80
2021/12/14 01:06:06;;;;;;;24.47;16.40;;;;;;;1.61;86.26;97467.33;1776107;80;21481;-80
2021/12/14 01:08:38;;;;;;;26.30;16.82;;;;;;;1.58;86.14;97467.07;1754895;79;21008;-80
2021/12/14 01:11:12;;;;;;;21.00;14.00;;;;;;;1.54;86.14;97459.23;1770659;80;21096;-80
2021/12/14 01:13:44;;;;;;;21.37;14.35;;;;;;;1.56;86.14;97456.56;1759612;80;21062;-80
2021/12/14 01:21:42;;;;;;;24.10;15.60;;;;;;;1.64;85.93;97461.56;1780708;80;21023;-80
2021/12/14 01:24:01;;;;;;;32.73;22.48;;;;;;;1.64;86.02;97464.13;1777570;80;20997;-80
2021/12/14 01:26:20;;;;;;;30.55;23.30;;;;;;;1.63;86.00;97460.39;1777144;80;21020;-81
2021/12/14 01:28:46;;;;;;;23.60;16.82;;;;;;;1.60;85.97;97453.70;1763168;79;21016;-80
2021/12/14 01:31:29;;;;;;;22.65;16.23;;;;;;;1.62;86.06;97455.70;1781161;80;21087;-80
2021/12/14 01:33:54;;;;;;;20.27;14.83;;;;;;;1.63;86.03;97450.96;1770324;80;21395;-80
2021/12/14 01:36:30;;;;;;;20.10;14.53;;;;;;;1.66;85.94;97447.37;1760711;79;21177;-80
2021/12/14 01:39:10;;;;;;;18.92;14.73;;;;;;;1.68;85.94;97448.91;1765495;80;21038;-80
2021/12/14 01:41:19;;;;;;;18.23;13.80;;;;;;;1.68;85.88;97445.53;1756022;80;21032;-80
2021/12/14 01:43:55;;;;;;;19.23;14.35;;;;;;;1.65;85.78;97443.99;1774349;80;21041;-80
2021/12/14 01:46:32;;;;;;;18.42;13.38;;;;;;;1.65;85.87;97440.61;1761016;79;21007;-80
2021/12/14 01:49:04;;;;;;;15.80;11.55;;;;;;;1.63;85.66;97439.44;1756060;80;21050;-80
2021/12/14 01:51:27;;;;;;;15.93;10.95;;;;;;;1.63;85.59;97439.44;1772284;80;21027;-80
2021/12/14 01:53:53;;;;;;;15.28;10.90;;;;;;;1.65;85.59;97442.71;1775579;80;21365;-80
2021/12/14 01:56:23;;;;;;;16.05;11.25;;;;;;;1.64;85.47;97442.81;1736134;80;21060;-80
2021/12/14 01:58:54;;;;;;;14.03;10.43;;;;;;;1.60;85.56;97439.61;1760493;80;21054;-80
2021/12/14 02:01:24;;;;;;;12.53;10.23;;;;;;;1.59;85.61;97438.43;1752539;80;21418;-80
2021/12/14 02:04:01;;;;;;;14.45;9.95;;;;;;;1.57;85.78;97442.38;1769265;80;21457;-80
2021/12/14 02:06:31;;;;;;;14.93;10.82;;;;;;;1.56;85.67;97436.08;1769894;80;21127;-80
2021/12/14 02:09:05;;;;;;;18.37;14.05;;;;;;;1.59;85.74;97443.09;1750114;80;21039;-80
2021/12/14 02:11:34;;;;;;;15.53;10.82;;;;;;;1.59;85.60;97443.55;1758233;80;21019;-80
2021/12/14 02:14:00;;;;;;;13.48;9.28;;;;;;;1.61;85.68;97436.58;1760903;80;21062;-80
2021/12/14 02:16:26;;;;;;;14.07;9.93;;;;;;;1.57;85.64;97432.13;1780574;80;21075;-80
2021/12/14 02:18:59;;;;;;;13.88;9.90;;;;;;;1.59;86.01;97434.59;1780876;80;21368;-80
2021/12/14 02:21:26;;;;;;;12.82;9.23;;;;;;;1.58;85.79;97435.52;1710662;82;21127;-80
2021/12/14 02:23:53;;;;;;;11.38;8.08;;;;;;;1.54;85.72;97431.05;1701233;83;21557;-80
2021/12/14 02:26:25;;;;;;;10.43;7.45;;;;;;;1.56;85.75;97435.61;1724483;81;20972;-80
2021/12/14 02:28:52;;;;;;;10.45;6.78;;;;;;;1.59;85.67;97436.69;1737477;82;21072;-80
2021/12/14 02:31:20;;;;;;;4.97;3.30;;;;;;;1.58;85.58;97438.07;1716101;83;21065;-81
2021/12/14 02:33:49;;;;;;;1.70;1.60;;;;;;;1.57;85.73;97430.84;1780759;80;21393;-80
2021/12/14 02:36:23;;;;;;;1.87;1.60;;;;;;;1.57;85.84;97431.31;1781233;80;21134;-80
2021/12/14 02:38:52;;;;;;;1.57;1.22;;;;;;;1.57;85.98;97434.69;1780746;80;21421;-80
2021/12/14 02:41:16;;;;;;;1.70;1.52;;;;;;;1.54;85.99;97434.90;1732102;80;21076;-80
2021/12/14 02:43:49;;;;;;;1.52;1.35;;;;;;;1.54;86.01;97431.05;1775441;80;21410;-80
2021/12/14 02:46:28;;;;;;;2.37;1.60;;;;;;;1.57;86.00;97431.31;1775031;78;21078;-80
2021/12/14 02:48:58;;;;;;;2.47;1.67;;;;;;;1.60;85.86;97437.51;1779394;80;21413;-80
2021/12/14 02:51:41;;;;;;;1.60;1.40;;;;;;;1.63;86.07;97435.59;1758519;80;21389;-80
2021/12/14 02:54:17;;;;;;;2.15;1.67;;;;;;;1.62;85.96;97435.66;1754889;80;21446;-80
2021/12/14 02:56:46;;;;;;;2.52;2.00;;;;;;;1.58;86.00;97429.11;1767204;80;21078;-80
2021/12/14 02:59:16;;;;;;;2.92;2.08;;;;;;;1.60;86.21;97437.05;1762475;80;20988;-80
2021/12/14 03:01:44;;;;;;;1.82;1.45;;;;;;;1.62;86.08;97436.94;1770655;80;21015;-80
2021/12/14 03:04:10;;;;;;;1.90;1.50;;;;;;;1.58;85.86;97435.52;1775867;80;21082;-81
2021/12/14 03:06:44;;;;;;;2.27;1.50;;;;;;;1.58;85.91;97438.07;1759854;80;21019;-80
2021/12/14 03:09:20;;;;;;;2.75;1.75;;;;;;;1.59;86.01;97444.84;1775591;80;21366;-80
2021/12/14 03:11:37;;;;;;;1.80;1.60;;;;;;;1.59;86.01;97439.71;1761759;80;21031;-80
2021/12/14 03:14:03;;;;;;;2.30;1.75;;;;;;;1.56;86.03;97450.16;1771153;80;21058;-80
2021/12/14 03:16:34;;;;;;;2.00;1.80;;;;;;;1.57;86.20;97456.92;1740117;80;21028;-80
2021/12/14 03:19:01;;;;;;;2.70;2.08;;;;;;;1.56;86.08;97452.27;1757723;80;21406;-80
2021/12/14 03:21:33;;;;;;;2.27;1.75;;;;;;;1.57;85.99;97451.80;1775420;80;20999;-80
2021/12/14 03:24:05;;;;;;;;;;;;;;;1.61;86.05;97454.05;1768007;80;20995;-80
2021/12/14 03:26:32;;;;;;;2.33;1.75;;;;;;;1.66;86.24;97457.16;1781790;80;20136;-81
2021/12/14 03:29:05;;;;;;;2.52;2.12;;;;;;;1.68;86.40;97454.50;1761445;80;21058;-80
2021/12/14 03:31:36;;;;;;;1.98;1.80;;;;;;;1.66;86.23;97455.87;1778217;80;21082;-80
2021/12/14 03:34:10;;;;;;;2.50;1.72;;;;;;;1.63;86.15;97455.27;1773520;80;21086;-80
2021/12/14 03:36:55;;;;;;;2.85;1.80;;;;;;;1.62;86.13;97464.66;1775966;80;21023;-80
2021/12/14 03:39:26;;;;;;;4.17;3.17;;;;;;;1.66;86.15;97462.74;1780874;80;21390;-80
2021/12/14 03:41:56;;;;;;;9.50;8.20;;;;;;;1.66;85.92;97460.19;1781937;80;21007;-80
2021/12/14 03:44:33;;;;;;;3.77;2.45;;;;;;;1.69;86.19;97458.23;1776558;79;21003;-80
2021/12/14 03:47:04;;;;;;;3.67;3.35;;;;;;;1.71;86.06;97457.67;1754226;80;21015;-80
2021/12/14 03:49:37;;;;;;;14.40;10.45;;;;;;;1.67;85.90;97454.14;1764993;80;21408;-80
2021/12/14 03:52:07;;;;;;;58.98;37.53;;;;;;;1.55;85.81;97457.03;1752787;80;21080;-80
2021/12/14 03:54:32;;;;;;;65.92;41.85;;;;;;;1.52;86.11;97450.83;1771925;80;21087;-80
2021/12/14 03:56:58;;;;;;;17.55;12.53;;;;;;;1.54;86.09;97447.70;1765706;80;21098;-80
2021/12/14 03:59:28;;;;;;;23.55;16.12;;;;;;;1.58;86.12;97440.17;1780104;79;21438;-80
2021/12/14 04:01:55;;;;;;;8.40;6.42;;;;;;;1.58;85.97;97436.33;1781801;80;21436;-80
2021/12/14 04:04:47;;;;;;;4.87;3.58;;;;;;;1.61;86.12;97439.15;1781518;80;20999;-80
2021/12/14 04:07:15;;;;;;;5.80;4.45;;;;;;;1.62;86.16;97445.45;1765416;80;21099;-80
2021/12/14 04:09:41;;;;;;;6.30;4.35;;;;;;;1.63;86.13;97443.73;1751878;79;21015;-80
2021/12/14 04:12:11;;;;;;;2.70;2.27;;;;;;;1.61;86.18;97450.22;1773773;80;21047;-80
2021/12/14 04:14:41;;;;;;;2.05;1.60;;;;;;;1.60;86.22;97444.73;1765621;80;21027;-80
2021/12/14 04:17:10;;;;;;;1.95;1.75;;;;;;;1.60;86.09;97449.03;1776084;80;21038;-80
2021/12/14 04:19:38;;;;;;;2.52;1.92;;;;;;;1.65;86.27;97450.39;1781494;80;21027;-80
2021/12/14 04:22:08;;;;;;;2.95;2.17;;;;;;;1.67;86.15;97446.45;1771150;80;21055;-80
2021/12/14 04:24:37;;;;;;;2.40;2.10;;;;;;;1.69;86.29;97453.57;1781288;80;21394;-80
2021/12/14 04:27:07;;;;;;;5.20;3.65;;;;;;;1.70;86.30;97451.37;1770566;80;20999;-80
2021/12/14 04:29:34;;;;;;;6.60;4.33;;;;;;;1.65;86.23;97449.58;1779976;80;21063;-80
2021/12/14 04:32:00;;;;;;;7.08;4.97;;;;;;;1.62;86.31;97450.57;1773571;80;21022;-80
2021/12/14 04:34:28;;;;;;;5.30;4.78;;;;;;;1.66;86.42;97455.06;1771407;80;21019;-80
2021/12/14 04:36:55;;;;;;;5.10;4.17;;;;;;;1.68;86.38;97457.88;1722049;81;21560;-80
2021/12/14 04:53:27;;;;;;;4.97;3.60;;;;;;;1.61;86.32;97457.90;1753092;80;21047;-80
2021/12/14 04:55:55;;;;;;;5.10;3.25;;;;;;;1.60;86.22;97457.54;1780772;79;21035;-80
2021/12/14 04:58:28;;;;;;;4.00;3.10;;;;;;;1.59;86.24;97448.67;1767177;80;21042;-80
2021/12/14 05:00:54;;;;;;;3.87;2.98;;;;;;;1.58;86.47;97452.98;1781613;80;21015;-80
2021/12/14 05:03:23;;;;;;;4.55;3.33;;;;;;;1.59;86.52;97448.67;1758070;80;21055;-80
2021/12/14 05:05:57;;;;;;;4.90;3.12;;;;;;;1.58;86.75;97454.27;1765103;80;21035;-80
2021/12/14 05:10:55;;;;;;;3.72;2.90;;;;;;;1.61;86.46;97450.67;1781147;80;21417;-80
2021/12/14 05:13:39;;;;;;;4.03;3.45;;;;;;;1.63;86.46;97450.14;1770724;80;21097;-80
2021/12/14 05:16:08;;;;;;;3.50;2.85;;;;;;;1.68;86.54;97452.75;1730491;80;21506;-80
2021/12/14 05:18:33;;;;;;;5.22;3.58;;;;;;;1.69;86.60;97462.08;1760486;79;21031;-80
2021/12/14 05:20:59;;;;;;;5.65;3.33;;;;;;;1.70;86.59;97457.31;1764438;80;20992;-80
2021/12/14 05:23:32;;;;;;;4.25;3.10;;;;;;;1.66;86.50;97462.28;1771702;80;21418;-80
2021/12/14 05:26:01;;;;;;;3.70;3.27;;;;;;;1.65;86.52;97462.39;1765516;79;21030;-82
2021/12/14 05:28:27;;;;;;;5.40;3.90;;;;;;;1.64;86.38;97470.53;1769370;80;21115;-80
2021/12/14 05:30:57;;;;;;;5.45;4.08;;;;;;;1.66;86.26;97466.59;1775598;80;21098;-80
2021/12/14 05:33:30;;;;;;;5.65;4.00;;;;;;;1.66;86.24;97459.72;1747975;80;21096;-80
2021/12/14 05:35:59;;;;;;;5.65;4.97;;;;;;;1.66;86.37;97455.06;1754062;80;21083;-80
2021/12/14 05:38:41;;;;;;;6.20;4.97;;;;;;;1.64;86.19;97460.75;1769630;80;21110;-80
2021/12/14 05:41:10;;;;;;;5.37;3.60;;;;;;;1.60;86.29;97456.72;1773014;80;21079;-80
2021/12/14 05:43:29;;;;;;;3.35;3.05;;;;;;;1.56;86.32;97452.73;1780506;80;21403;-80
2021/12/14 05:45:58;;;;;;;3.40;2.92;;;;;;;1.55;86.33;97449.34;1763675;80;21023;-80
2021/12/14 05:48:28;;;;;;;2.85;2.58;;;;;;;1.56;86.43;97447.14;1758364;80;21020;-80
2021/12/14 05:50:58;;;;;;;2.85;2.33;;;;;;;1.61;86.45;97436.58;1774131;80;21075;-80
2021/12/14 05:53:33;;;;;;;3.08;2.35;;;;;;;1.59;86.47;97437.15;1755064;80;20996;-80
2021/12/14 05:56:01;;;;;;;2.85;2.25;;;;;;;1.56;86.53;97430.95;1772424;80;21383;-81
2021/12/14 05:58:28;;;;;;;2.55;2.20;;;;;;;1.51;86.63;97432.54;1778238;80;21034;-80
2021/12/14 06:00:59;;;;;;;2.40;2.00;;;;;;;1.48;86.79;97425.06;1750084;80;20999;-80
2021/12/14 06:03:29;;;;;;;2.67;2.33;;;;;;;1.45;86.73;97421.39;1770622;80;21474;-80
2021/12/14 06:05:55;;;;;;;2.17;1.92;;;;;;;1.46;86.82;97419.19;1763565;80;21064;-80
2021/12/14 06:08:26;;;;;;;2.00;1.80;;;;;;;1.52;87.11;97417.53;1778229;80;21110;-80
2021/12/14 06:10:53;;;;;;;1.67;1.57;;;;;;;1.56;87.00;97419.42;1778828;80;21039;-80
2021/12/14 06:13:19;;;;;;;1.85;1.75;;;;;;;1.54;86.86;97425.93;1753120;80;21007;-81
2021/12/14 06:15:46;;;;;;;2.08;1.85;;;;;;;1.56;86.97;97430.95;1748050;80;21455;-81
2021/12/14 06:18:12;;;;;;;2.00;1.80;;;;;;;1.55;86.85;97431.41;1779368;80;21087;-81
2021/12/14 06:20:38;;;;;;;1.82;1.52;;;;;;;1.56;86.75;97433.52;1778941;80;21063;-80
2021/12/14 06:23:03;;;;;;;1.75;1.62;;;;;;;1.56;86.53;97427.11;1716863;81;21056;-80
2021/12/14 06:25:29;;;;;;;2.00;1.90;;;;;;;1.55;86.45;97425.01;1760717;80;21414;-81
2021/12/14 06:27:59;;;;;;;3.05;2.67;;;;;;;1.55;86.50;97430.13;1757623;80;22156;-81
2021/12/14 06:30:28;;;;;;;4.62;3.40;;;;;;;1.56;86.44;97428.39;1762920;80;21004;-81
2021/12/14 06:33:07;;;;;;;1.77;1.67;;;;;;;1.53;86.27;97423.47;1763535;80;21004;-80
2021/12/14 06:35:46;;;;;;;4.37;3.12;;;;;;;1.46;86.19;97426.45;1778859;80;21390;-80
2021/12/14 06:38:29;;;;;;;2.40;2.20;;;;;;;1.37;86.01;97431.33;1730816;80;21064;-80
2021/12/14 06:41:10;;;;;;;1.50;1.40;;;;;;;1.31;85.79;97431.28;1757133;80;21450;-80
2021/12/14 06:43:54;;;;;;;0.80;0.80;;;;;;;1.27;85.78;97428.98;1765483;80;21062;-80
2021/12/14 06:46:31;;;;;;;1.32;1.22;;;;;;;1.26;85.71;97430.73;1776763;80;21071;-80
2021/12/14 06:49:07;;;;;;;1.07;0.98;;;;;;;1.16;85.62;97420.73;1758995;80;21367;-80
2021/12/14 06:51:37;;;;;;;0.95;0.85;;;;;;;1.12;85.76;97425.20;1753342;80;21027;-80
2021/12/14 06:54:08;;;;;;;1.45;1.20;;;;;;;1.07;85.47;97417.01;1761319;80;20999;-80
2021/12/14 06:56:34;;;;;;;1.10;1.00;;;;;;;1.01;85.30;97419.97;1774864;80;21007;-80
2021/12/14 06:59:12;;;;;;;1.02;0.93;;;;;;;1.01;85.41;97417.87;1771992;80;21056;-80
2021/12/14 07:01:45;;;;;;;1.07;1.00;;;;;;;1.00;85.25;97413.67;1777850;79;21422;-80
2021/12/14 07:04:15;;;;;;;0.80;0.80;;;;;;;1.01;85.41;97399.95;1750899;80;21064;-80
2021/12/14 07:06:45;;;;;;;1.07;1.00;;;;;;;1.00;85.44;97397.86;1731046;80;21001;-80
2021/12/14 07:09:16;;;;;;;0.88;0.88;;;;;;;0.99;85.45;97401.34;1727583;81;21098;-80
2021/12/14 07:11:47;;;;;;;0.80;0.80;;;;;;;0.97;85.28;97400.59;1770595;81;21075;-80
2021/12/14 07:14:34;;;;;;;0.85;0.80;;;;;;;0.98;85.13;97401.44;1773116;80;21403;-80
2021/12/14 07:17:06;;;;;;;0.72;0.72;;;;;;;0.92;84.77;97397.50;1764287;80;21031;-80
2021/12/14 07:19:53;;;;;;;1.00;1.00;;;;;;;0.91;85.00;97397.14;1757676;80;21119;-80
2021/12/14 07:22:33;;;;;;;1.00;0.93;;;;;;;0.84;84.68;97401.84;1770398;80;20999;-80
2021/12/14 07:25:28;;;;;;;1.00;1.00;;;;;;;0.83;84.99;97404.04;1768835;80;21051;-80
2021/12/14 07:28:10;;;;;;;0.80;0.80;;;;;;;0.84;85.05;97409.52;1763926;80;21097;-80
2021/12/14 07:30:55;;;;;;;1.00;1.00;;;;;;;0.86;84.81;97414.54;1753890;80;21446;-80
2021/12/14 07:33:31;;;;;;;0.90;0.90;;;;;;;0.87;85.07;97412.34;1748106;80;21012;-80
2021/12/14 07:36:10;;;;;;;1.12;1.02;;;;;;;0.92;85.23;97415.42;1758297;80;21058;-80
2021/12/14 07:38:46;;;;;;;0.82;0.82;;;;;;;0.91;85.10;97411.22;1778799;80;20960;-80
2021/12/14 07:41:26;;;;;;;0.85;0.85;;;;;;;0.95;85.10;97425.45;1734950;81;21084;-80
2021/12/14 07:44:04;;;;;;;0.90;0.90;;;;;;;1.00;85.12;97413.67;1757800;80;21020;-80
2021/12/14 07:46:44;;;;;;;1.10;1.00;;;;;;;1.03;85.12;97418.59;1764521;80;21071;-80
2021/12/14 07:49:32;;;;;;;1.25;1.00;;;;;;;1.08;85.27;97418.65;1768572;80;21454;-81
2021/12/14 07:52:11;;;;;;;0.98;0.90;;;;;;;1.15;85.37;97420.38;1768353;80;21012;-80
2021/12/14 07:54:43;;;;;;;0.90;0.90;;;;;;;1.19;85.38;97420.08;1762195;80;21067;-80
2021/12/14 07:57:15;;;;;;;0.80;0.80;;;;;;;1.28;85.63;97419.11;1756238;80;21063;-80
2021/12/14 07:59:51;;;;;;;0.72;0.72;;;;;;;1.40;85.69;97421.70;1780174;80;20999;-80
2021/12/14 08:02:30;;;;;;;0.75;0.75;;;;;;;1.53;85.84;97413.23;1779577;80;21470;-81
2021/12/14 08:05:01;;;;;;;0.80;0.80;;;;;;;1.58;85.52;97417.12;1778489;80;21040;-80
2021/12/14 08:07:34;;;;;;;1.02;0.98;;;;;;;1.61;85.50;97414.81;1773223;80;20980;-81
2021/12/14 08:10:24;;;;;;;0.80;0.80;;;;;;;1.65;85.66;97420.94;1774959;80;21055;-81
2021/12/14 08:12:57;;;;;;;15.68;6.00;;;;;;;1.70;85.49;97409.91;1735939;80;21084;-80
2021/12/14 08:15:53;;;;;;;45.75;20.17;;;;;;;1.77;85.31;97418.00;1750921;80;21030;-80
2021/12/14 08:18:26;;;;;;;37.50;19.20;;;;;;;1.82;85.40;97420.28;1775098;80;21023;-80
2021/12/14 08:20:58;;;;;;;60.95;26.77;;;;;;;1.87;85.48;97421.60;1780396;80;21020;-80
2021/12/14 08:23:39;;;;;;;39.18;18.67;;;;;;;1.91;85.34;97421.75;1771014;80;21096;-80
2021/12/14 08:26:13;;;;;;;31.20;17.30;;;;;;;1.96;85.29;97424.84;1758493;80;21015;-81
2021/12/14 08:28:58;;;;;;;26.10;16.02;;;;;;;1.96;84.90;97423.56;1771053;80;21112;-80
2021/12/14 08:31:32;;;;;;;15.48;8.88;;;;;;;1.96;84.82;97427.88;1777025;80;20999;-80
2021/12/14 08:34:01;;;;;;;30.05;18.42;;;;;;;2.00;84.64;97426.27;1750655;80;21004;-81
2021/12/14 08:36:41;;;;;;;31.30;21.87;;;;;;;2.03;84.68;97418.37;1769603;80;21379;-81
2021/12/14 08:39:24;;;;;;;34.27;22.95;;;;;;;2.03;84.65;97419.65;1769630;80;21442;-81
2021/12/14 08:41:56;;;;;;;41.85;25.88;;;;;;;2.11;84.76;97426.81;1773608;80;21004;-80
2021/12/14 08:44:35;;;;;;;31.95;21.12;;;;;;;2.20;84.92;97427.95;1758079;80;21008;-80
2021/12/14 08:46:56;;;;;;;51.63;32.58;;;;;;;2.29;84.81;97431.18;1771702;80;20996;-81
2021/12/14 08:49:22;;;;;;;41.13;26.85;;;;;;;2.44;84.82;97435.27;1775536;80;21058;-80
2021/12/14 08:51:48;;;;;;;30.65;19.70;;;;;;;2.62;84.80;97439.12;1756866;80;21003;-81
2021/12/14 08:54:18;;;;;;;38.40;25.60;;;;;;;2.76;84.39;97449.68;1780036;80;21047;-81
2021/12/14 08:57:08;;;;;;;50.78;34.60;;;;;;;2.84;84.23;97452.55;1758568;80;21060;-81
2021/12/14 08:59:37;;;;;;;59.60;37.88;;;;;;;2.88;84.22;97456.53;1774636;80;21055;-81
2021/12/14 09:02:07;;;;;;;32.00;23.38;;;;;;;2.95;84.19;97456.47;1769616;80;21358;-81
2021/12/14 09:04:41;;;;;;;49.13;34.08;;;;;;;2.98;83.93;97463.95;1769128;80;21027;-80
2021/12/14 09:07:11;;;;;;;61.42;39.75;;;;;;;2.95;83.83;97456.47;1779915;80;20972;-81
2021/12/14 09:09:38;;;;;;;60.40;40.78;;;;;;;3.01;83.80;97456.03;1768220;80;21782;-81
2021/12/14 09:12:12;;;;;;;59.53;40.08;;;;;;;3.08;83.64;97445.31;1758421;80;21040;-81
2021/12/14 09:14:38;;;;;;;58.65;40.70;;;;;;;3.17;83.46;97436.50;1754911;80;20976;-81
2021/12/14 09:17:06;;;;;;;52.65;37.58;;;;;;;3.28;83.45;97430.13;1768575;80;21003;-81
2021/12/14 09:19:42;;;;;;;52.48;38.20;;;;;;;3.30;83.07;97421.84;1779850;80;21458;-80
2021/12/14 09:22:16;;;;;;;47.45;34.05;;;;;;;3.34;83.28;97415.20;1753491;80;21355;-81
2021/12/14 09:24:42;;;;;;;51.25;36.00;;;;;;;3.40;83.08;97414.27;1753888;80;20981;-81
2021/12/14 09:27:11;;;;;;;49.33;35.30;;;;;;;3.41;83.01;97418.48;1779900;80;21023;-81
2021/12/14 09:29:38;;;;;;;51.10;37.40;;;;;;;3.43;82.88;97419.22;1774823;80;21358;-81
2021/12/14 09:32:07;;;;;;;47.75;36.10;;;;;;;3.47;82.92;97425.76;1774144;80;21027;-81
2021/12/14 09:34:35;;;;;;;49.48;34.98;;;;;;;3.53;82.79;97415.02;1776486;80;21035;-81
2021/12/14 09:37:01;;;;;;;49.08;36.20;;;;;;;3.60;82.58;97419.27;1756322;80;21026;-81
2021/12/14 09:39:34;;;;;;;50.85;36.98;;;;;;;3.63;82.45;97413.07;1761149;80;21032;-81
2021/12/14 09:42:05;;;;;;;53.08;37.85;;;;;;;3.67;82.46;97411.44;1753405;80;21047;-81
2021/12/14 09:44:32;;;;;;;51.08;36.35;;;;;;;3.72;82.36;97411.91;1758718;80;21134;-81
2021/12/14 09:47:01;;;;;;;55.52;39.35;;;;;;;3.77;82.22;97402.13;1748297;80;21039;-81
2021/12/14 09:49:27;;;;;;;50.73;36.10;;;;;;;3.79;82.15;97400.25;1764003;80;21028;-81
2021/12/14 09:52:04;;;;;;;57.45;40.28;;;;;;;3.77;81.73;97398.27;1768767;80;21426;-80
2021/12/14 09:54:30;;;;;;;58.05;40.63;;;;;;;3.76;81.81;97400.95;1751039;80;21049;-81
2021/12/14 09:57:06;;;;;;;57.33;42.03;;;;;;;3.81;81.81;97398.38;1779019;80;20976;-81
2021/12/14 09:59:32;;;;;;;57.50;40.48;;;;;;;3.85;81.72;97395.11;1778641;80;21011;-81
2021/12/14 10:02:05;;;;;;;58.10;41.83;;;;;;;3.89;81.76;97395.22;1758921;80;21438;-81
2021/12/14 10:04:40;;;;;;;50.90;36.50;;;;;;;3.91;81.64;97404.95;1773015;80;21046;-81
2021/12/14 10:07:08;;;;;;;55.15;39.00;;;;;;;3.94;81.71;97406.47;1778080;80;20996;-81
2021/12/14 10:09:41;;;;;;;56.58;42.83;;;;;;;3.98;81.75;97402.25;1774895;80;21004;-81
2021/12/14 10:12:28;;;;;;;62.93;44.35;;;;;;;3.98;81.62;97404.01;1763689;80;21012;-81
2021/12/14 10:14:43;;;;;;;59.77;42.93;;;;;;;4.00;81.72;97408.56;1772118;80;21079;-81
2021/12/14 10:17:13;;;;;;;64.40;46.75;;;;;;;4.01;81.29;97408.91;1761920;79;21123;-81
2021/12/14 10:19:39;;;;;;;65.45;44.70;;;;;;;4.07;81.29;97405.43;1750104;80;21107;-81
2021/12/14 10:22:10;;;;;;;73.67;56.18;;;;;;;4.15;81.27;97407.41;1778936;80;21367;-81
2021/12/14 10:24:36;;;;;;;75.97;56.70;;;;;;;4.17;80.94;97406.81;1774267;80;21103;-81
2021/12/14 10:27:10;;;;;;;74.97;55.03;;;;;;;4.18;81.24;97397.70;1767056;80;21122;-81
2021/12/14 10:29:36;;;;;;;77.20;51.92;;;;;;;4.27;81.18;97396.66;1767009;80;20991;-81
2021/12/14 10:32:10;;;;;;;74.17;53.68;;;;;;;4.30;80.90;97398.98;1754306;80;21042;-81
2021/12/14 10:34:40;;;;;;;74.25;53.40;;;;;;;4.27;80.66;97394.09;1779633;80;21003;-81
2021/12/14 10:37:17;;;;;;;73.02;51.08;;;;;;;4.22;80.60;97388.80;1765307;80;21075;-81
2021/12/14 10:42:39;;;;;;;81.80;54.45;;;;;;;4.25;80.67;97390.81;1757944;80;20992;-81
2021/12/14 10:44:59;;;;;;;77.22;53.80;;;;;;;4.28;80.21;97389.29;1769050;80;21003;-81
2021/12/14 10:47:27;;;;;;;69.85;50.73;;;;;;;4.28;80.42;97385.43;1781050;80;21055;-81
2021/12/14 10:49:53;;;;;;;68.10;49.60;;;;;;;4.33;80.72;97385.41;1766152;80;21522;-81
2021/12/14 10:52:24;;;;;;;68.87;49.45;;;;;;;4.40;80.58;97379.34;1754409;80;21027;-81
2021/12/14 10:55:02;;;;;;;60.88;41.80;;;;;;;4.43;80.48;97374.77;1781848;80;21003;-81
2021/12/14 10:57:31;;;;;;;49.65;34.73;;;;;;;4.45;80.29;97379.33;1780879;80;21397;-81
2021/12/14 10:59:57;;;;;;;51.90;39.05;;;;;;;4.42;79.90;97372.32;1761203;80;21007;-81
2021/12/14 11:02:25;;;;;;;57.08;40.25;;;;;;;4.47;79.98;97367.62;1769527;80;21015;-81
2021/12/14 11:04:58;;;;;;;60.08;44.45;;;;;;;4.55;80.23;97369.11;1760548;80;21023;-81
2021/12/14 11:07:29;;;;;;;59.33;42.08;;;;;;;4.61;80.11;97364.80;1771105;80;21431;-81
2021/12/14 11:10:13;;;;;;;55.07;41.13;;;;;;;4.64;80.00;97364.55;1752339;80;21063;-81
2021/12/14 11:12:43;;;;;;;48.75;35.52;;;;;;;4.67;80.08;97363.01;1769978;80;21026;-81
2021/12/14 11:15:20;;;;;;;46.40;34.50;;;;;;;4.70;80.00;97354.22;1765493;80;21039;-81
2021/12/14 11:20:37;;;;;;;44.40;31.35;;;;;;;4.63;79.89;97344.89;1769421;80;20989;-81
2021/12/14 11:23:09;;;;;;;42.30;28.47;;;;;;;4.62;79.91;97344.55;1770340;80;21004;-81
2021/12/14 11:25:40;;;;;;;34.83;26.35;;;;;;;4.61;80.04;97344.20;1762336;80;21108;-81
2021/12/14 11:28:11;;;;;;;42.03;30.73;;;;;;;4.67;80.10;97342.88;1769533;80;21056;-82
2021/12/14 11:30:48;;;;;;;57.03;33.78;;;;;;;4.71;80.24;97345.09;1773257;80;21463;-81
2021/12/14 11:33:36;;;;;;;44.65;29.18;;;;;;;4.64;79.72;97343.13;1774004;80;21016;-81
2021/12/14 11:36:11;;;;;;;30.80;21.65;;;;;;;4.65;79.92;97338.33;1773500;80;21016;-82
2021/12/14 11:38:49;;;;;;;27.22;19.73;;;;;;;4.73;80.00;97335.98;1773400;80;21103;-81
2021/12/14 11:41:32;;;;;;;21.27;15.72;;;;;;;4.75;79.90;97335.39;1779046;80;21051;-82
2021/12/14 11:44:22;;;;;;;15.93;11.73;;;;;;;4.78;79.76;97341.58;1779022;80;21122;-82
2021/12/14 11:47:03;;;;;;;19.23;13.38;;;;;;;4.79;79.65;97340.63;1774086;80;20991;-82
2021/12/14 11:49:46;;;;;;;12.63;7.70;;;;;;;4.78;79.11;97346.72;1773682;80;21015;-81
2021/12/14 11:52:15;;;;;;;14.75;11.10;;;;;;;4.82;79.12;97337.81;1768794;80;21023;-81
2021/12/14 11:54:46;;;;;;;12.63;8.95;;;;;;;4.88;79.41;97336.48;1730703;81;21012;-81
2021/12/14 11:57:14;;;;;;;14.43;11.12;;;;;;;4.91;79.37;97334.51;1775668;80;21398;-81
2021/12/14 11:59:40;;;;;;;16.70;12.05;;;;;;;4.89;79.48;97335.58;1778932;80;20988;-82
2021/12/14 12:02:06;;;;;;;17.00;13.48;;;;;;;4.83;79.33;97341.55;1779723;80;21347;-82
2021/12/14 12:04:35;;;;;;;16.48;9.83;;;;;;;4.71;79.05;97345.09;1757505;80;21000;-81
2021/12/14 12:09:48;;;;;;;13.50;9.35;;;;;;;4.76;79.56;97337.84;1766905;80;21043;-81
2021/12/14 12:12:28;;;;;;;13.35;8.75;;;;;;;4.79;79.37;97332.91;1758878;80;21068;-82
2021/12/14 12:15:01;;;;;;;10.35;8.00;;;;;;;4.74;79.07;97331.99;1764254;80;21022;-81
2021/12/14 12:17:44;;;;;;;12.55;8.48;;;;;;;4.69;78.68;97332.81;1760425;79;21476;-82
2021/12/14 12:20:25;;;;;;;9.08;7.53;;;;;;;4.61;78.93;97323.61;1762642;80;21418;-81
2021/12/14 12:23:10;;;;;;;14.85;11.45;;;;;;;4.59;79.39;97329.34;1779720;80;21063;-81
2021/12/14 12:25:46;;;;;;;16.57;12.55;;;;;;;4.56;79.56;97336.50;1777789;80;21090;-81
2021/12/14 12:28:18;;;;;;;14.53;11.53;;;;;;;4.54;80.10;97330.16;1759597;80;21386;-81
2021/12/14 12:30:53;;;;;;;18.60;13.88;;;;;;;4.59;80.12;97332.39;1775583;80;20976;-81
2021/12/14 12:33:41;;;;;;;13.00;9.35;;;;;;;4.62;79.86;97338.11;1757818;80;22019;-81